Time;durP1;ratioP1;P1;durP2;ratioP2;P2;SDS_P1;SDS_P2;PMS_P1;PMS_P2;Temp;Humidity;BMP_temperature;BMP_pressure;BME280_temperature;BME280_humidity;BME280_pressure;Samples;Min_cycle;Max_cycle;Signal;HPM_P1;HPM_P2
2023/06/26 00:00:40;;;;;;;7.72;5.50;;;23.60;99.90;;;;;;5032222;28;20465;-69
2023/06/26 00:03:06;;;;;;;7.15;5.47;;;23.50;99.90;;;;;;5032298;28;20441;-69
2023/06/26 00:05:32;;;;;;;8.70;5.63;;;23.60;99.90;;;;;;5049763;28;20498;-69
2023/06/26 00:08:00;;;;;;;8.80;6.40;;;23.50;99.90;;;;;;5030964;28;20459;-69
2023/06/26 00:10:27;;;;;;;9.02;5.88;;;23.50;99.90;;;;;;5029697;28;20087;-70
2023/06/26 00:12:53;;;;;;;13.32;6.60;;;23.50;99.90;;;;;;5016015;28;20041;-69
2023/06/26 00:15:19;;;;;;;6.32;5.32;;;23.40;99.90;;;;;;5029907;28;20404;-69
2023/06/26 00:17:45;;;;;;;8.02;5.55;;;23.40;99.90;;;;;;5031863;28;20224;-69
2023/06/26 00:20:11;;;;;;;9.88;5.88;;;23.40;99.90;;;;;;5049632;28;20040;-69
2023/06/26 00:22:40;;;;;;;;;;;23.40;99.90;;;;;;5032086;28;20037;-69
2023/06/26 00:25:07;;;;;;;7.05;4.68;;;23.40;99.90;;;;;;5012805;28;19947;-69
2023/06/26 00:27:32;;;;;;;8.75;5.32;;;23.30;99.90;;;;;;5031511;28;20045;-69
2023/06/26 00:29:58;;;;;;;7.43;5.70;;;23.30;99.90;;;;;;5031449;28;20501;-70
2023/06/26 00:32:23;;;;;;;;;;;23.30;99.90;;;;;;5030793;28;20449;-69
2023/06/26 00:34:49;;;;;;;7.80;6.10;;;23.20;99.90;;;;;;5030914;28;19951;-69
2023/06/26 00:37:15;;;;;;;10.02;5.93;;;23.20;99.90;;;;;;5031419;28;20453;-69
2023/06/26 00:39:41;;;;;;;;;;;23.20;99.90;;;;;;5031852;28;20052;-69
2023/06/26 00:42:07;;;;;;;8.32;5.65;;;23.20;99.90;;;;;;5031640;28;20334;-69
2023/06/26 00:44:32;;;;;;;8.15;6.13;;;23.10;99.90;;;;;;5028869;28;20435;-69
2023/06/26 00:46:58;;;;;;;;;;;23.10;99.90;;;;;;5049781;28;20066;-69
2023/06/26 00:49:26;;;;;;;7.97;5.38;;;23.10;99.90;;;;;;5040366;28;19924;-69
2023/06/26 00:51:51;;;;;;;7.43;5.40;;;23.00;99.90;;;;;;5029007;28;20041;-69
2023/06/26 00:54:20;;;;;;;9.30;5.63;;;23.00;99.90;;;;;;5030659;28;20032;-69
2023/06/26 00:56:47;;;;;;;10.05;5.75;;;23.00;99.90;;;;;;5031330;28;20516;-69
2023/06/26 00:59:13;;;;;;;8.55;5.72;;;23.00;99.90;;;;;;5044766;28;20040;-69
2023/06/26 01:01:39;;;;;;;8.90;5.50;;;23.00;99.90;;;;;;5049366;28;20137;-69
2023/06/26 01:04:05;;;;;;;9.70;5.70;;;23.00;99.90;;;;;;5048774;28;20068;-69
2023/06/26 01:06:35;;;;;;;8.57;5.40;;;23.00;99.90;;;;;;5029321;28;20093;-70
2023/06/26 01:09:02;;;;;;;7.85;5.95;;;23.00;99.90;;;;;;5045842;28;20040;-69
2023/06/26 01:11:28;;;;;;;8.02;5.72;;;23.00;99.90;;;;;;5031105;28;20170;-69
2023/06/26 01:13:56;;;;;;;8.02;5.40;;;23.00;99.90;;;;;;5030799;28;20132;-69
2023/06/26 01:16:23;;;;;;;10.10;6.03;;;23.00;99.90;;;;;;5028776;28;20040;-69
2023/06/26 01:18:49;;;;;;;7.30;5.15;;;23.00;99.90;;;;;;5030697;28;20033;-69
2023/06/26 01:21:17;;;;;;;7.25;5.40;;;22.90;99.90;;;;;;5048759;28;20558;-69
2023/06/26 01:23:58;;;;;;;7.75;5.43;;;23.00;99.90;;;;;;5024794;28;20045;-69
2023/06/26 01:26:29;;;;;;;8.40;5.53;;;23.00;99.90;;;;;;5029832;28;20045;-69
2023/06/26 01:28:56;;;;;;;7.65;5.13;;;22.90;99.90;;;;;;5048738;28;20073;-69
2023/06/26 01:31:23;;;;;;;8.63;5.50;;;22.90;99.90;;;;;;5027905;28;20056;-69
2023/06/26 01:33:50;;;;;;;9.10;5.25;;;22.90;99.90;;;;;;5047738;28;20098;-69
2023/06/26 01:36:16;;;;;;;8.13;5.70;;;23.00;99.90;;;;;;5048575;28;20100;-69
2023/06/26 01:38:42;;;;;;;10.65;5.80;;;22.90;99.90;;;;;;5043390;28;20128;-69
2023/06/26 01:41:08;;;;;;;7.60;5.32;;;22.90;99.90;;;;;;5030481;28;20183;-69
2023/06/26 01:43:57;;;;;;;7.68;5.82;;;22.90;99.90;;;;;;5030559;28;20461;-69
2023/06/26 01:46:33;;;;;;;8.10;6.13;;;22.90;99.90;;;;;;5027590;28;20395;-69
2023/06/26 01:49:13;;;;;;;9.27;5.90;;;22.90;99.90;;;;;;5021431;28;20045;-69
2023/06/26 01:51:45;;;;;;;10.35;6.03;;;22.90;99.90;;;;;;5029487;28;20502;-69
2023/06/26 01:54:17;;;;;;;8.77;5.57;;;22.90;99.90;;;;;;5030038;28;20072;-69
2023/06/26 01:56:48;;;;;;;8.10;5.63;;;22.90;99.90;;;;;;5025280;28;20171;-69
2023/06/26 01:59:14;;;;;;;9.60;6.30;;;22.90;99.90;;;;;;5029743;28;20041;-69
2023/06/26 02:01:40;;;;;;;;;;;22.90;99.90;;;;;;5030809;28;20475;-69
2023/06/26 02:04:05;;;;;;;7.00;5.40;;;22.90;99.90;;;;;;5047847;28;19928;-69
2023/06/26 02:06:31;;;;;;;;;;;22.80;99.90;;;;;;5047356;28;20036;-69
2023/06/26 02:08:57;;;;;;;7.60;5.82;;;22.90;99.90;;;;;;5024407;28;19935;-69
2023/06/26 02:11:22;;;;;;;;;;;22.80;99.90;;;;;;5030259;28;20040;-69
2023/06/26 02:13:48;;;;;;;11.05;5.65;;;22.80;99.90;;;;;;5030134;28;19921;-69
2023/06/26 02:16:14;;;;;;;;;;;22.80;99.90;;;;;;5034776;28;20445;-69
2023/06/26 02:18:39;;;;;;;8.27;6.28;;;22.80;99.90;;;;;;5048185;28;20022;-69
2023/06/26 02:21:05;;;;;;;;;;;22.80;99.90;;;;;;5043857;28;20391;-69
2023/06/26 02:23:31;;;;;;;10.00;6.28;;;22.80;99.90;;;;;;5048368;28;19917;-68
2023/06/26 02:25:56;;;;;;;;;;;22.80;99.90;;;;;;5029851;28;20037;-69
2023/06/26 02:28:22;;;;;;;8.52;5.80;;;22.70;99.90;;;;;;5024747;28;20031;-69
2023/06/26 02:30:47;;;;;;;;;;;22.70;99.90;;;;;;5030363;28;20048;-69
2023/06/26 02:33:13;;;;;;;9.15;6.40;;;22.70;99.90;;;;;;5029252;28;19927;-69
2023/06/26 02:35:39;;;;;;;;;;;22.70;99.90;;;;;;5046357;28;20140;-68
2023/06/26 02:38:04;;;;;;;10.55;6.25;;;22.70;99.90;;;;;;5042443;28;19917;-69
2023/06/26 02:40:30;;;;;;;;;;;22.70;99.90;;;;;;5030017;28;20036;-68
2023/06/26 02:42:55;;;;;;;10.05;6.18;;;22.70;99.90;;;;;;5048120;28;19921;-68
2023/06/26 02:45:21;;;;;;;;;;;22.70;99.90;;;;;;5046820;28;20044;-69
2023/06/26 02:47:47;;;;;;;8.75;6.47;;;22.70;99.90;;;;;;5039434;28;19923;-69
2023/06/26 02:50:12;;;;;;;;;;;22.60;99.90;;;;;;5036294;28;20080;-68
2023/06/26 02:52:38;;;;;;;8.93;6.82;;;22.60;99.90;;;;;;5046154;28;20003;-69
2023/06/26 02:55:04;;;;;;;;;;;22.60;99.90;;;;;;5044455;28;20040;-68
2023/06/26 02:57:30;;;;;;;13.75;6.97;;;22.50;99.90;;;;;;5051450;28;19963;-69
2023/06/26 02:59:55;;;;;;;;;;;22.50;99.90;;;;;;5033779;28;20076;-68
2023/06/26 03:02:21;;;;;;;8.43;6.07;;;22.40;99.90;;;;;;5033661;28;20378;-69
2023/06/26 03:04:47;;;;;;;;;;;22.40;99.90;;;;;;5050792;28;20111;-68
2023/06/26 03:07:12;;;;;;;11.77;6.78;;;22.40;99.90;;;;;;5029082;28;20274;-69
2023/06/26 03:09:38;;;;;;;;;;;22.40;99.90;;;;;;5051780;28;20040;-68
2023/06/26 03:12:04;;;;;;;10.07;6.47;;;22.30;99.90;;;;;;5032852;28;19923;-69
2023/06/26 03:14:31;;;;;;;;;;;22.30;99.90;;;;;;5028569;28;20036;-69
2023/06/26 03:16:58;;;;;;;8.38;5.63;;;22.30;99.90;;;;;;5050258;28;19917;-68
2023/06/26 03:19:24;;;;;;;10.48;5.60;;;22.30;99.90;;;;;;5050679;28;20037;-68
2023/06/26 03:21:50;;;;;;;;;;;22.20;99.90;;;;;;5031824;28;20048;-68
2023/06/26 03:24:16;;;;;;;7.70;5.03;;;22.20;99.90;;;;;;5046168;28;20421;-69
2023/06/26 03:26:41;;;;;;;;;;;22.20;99.90;;;;;;5028269;28;20466;-68
2023/06/26 03:29:08;;;;;;;9.30;4.97;;;22.20;99.90;;;;;;5050967;28;19936;-69
2023/06/26 03:31:33;;;;;;;9.27;5.10;;;22.10;99.90;;;;;;5050537;28;20548;-69
2023/06/26 03:33:59;;;;;;;;;;;22.10;99.90;;;;;;5032832;28;20045;-69
2023/06/26 03:36:25;;;;;;;7.88;4.75;;;22.10;99.90;;;;;;5032959;28;19923;-68
2023/06/26 03:38:51;;;;;;;;;;;22.10;99.90;;;;;;5033618;28;20339;-68
2023/06/26 03:41:16;;;;;;;9.18;4.82;;;22.10;99.90;;;;;;5049452;28;19925;-68
2023/06/26 03:43:42;;;;;;;;;;;22.00;99.90;;;;;;5033119;28;20207;-68
2023/06/26 03:46:08;;;;;;;9.32;4.75;;;22.00;99.90;;;;;;5049037;28;19920;-68
2023/06/26 03:48:33;;;;;;;;;;;21.90;99.90;;;;;;5032487;28;20102;-68
2023/06/26 03:51:01;;;;;;;11.15;4.88;;;21.90;99.90;;;;;;5032965;28;19970;-68
2023/06/26 03:53:26;;;;;;;11.70;5.22;;;21.90;99.90;;;;;;5032253;28;20099;-68
2023/06/26 03:55:52;;;;;;;;;;;21.90;99.90;;;;;;5047472;28;20040;-69
2023/06/26 03:58:18;;;;;;;10.18;4.68;;;21.80;99.90;;;;;;5049985;28;19943;-69
2023/06/26 04:00:43;;;;;;;;;;;21.80;99.90;;;;;;5046816;28;20033;-68
2023/06/26 04:03:09;;;;;;;8.85;4.82;;;21.80;99.90;;;;;;5049590;28;20335;-69
2023/06/26 04:05:35;;;;;;;10.88;5.40;;;21.70;99.90;;;;;;5027856;28;20045;-68
2023/06/26 04:08:01;;;;;;;;;;;21.70;99.90;;;;;;5048905;28;20040;-69
2023/06/26 04:10:27;;;;;;;10.73;4.93;;;21.70;99.90;;;;;;5047818;28;19999;-68
2023/06/26 04:12:53;;;;;;;;;;;21.70;99.90;;;;;;5046170;28;20498;-69
2023/06/26 04:15:18;;;;;;;10.25;5.05;;;21.70;99.90;;;;;;5049362;28;19921;-68
2023/06/26 04:17:44;;;;;;;;;;;21.60;99.90;;;;;;5028036;28;20093;-68
2023/06/26 04:20:10;;;;;;;11.45;5.43;;;21.60;99.90;;;;;;5032058;28;19980;-69
2023/06/26 04:22:35;;;;;;;11.77;5.88;;;21.60;99.90;;;;;;5045529;28;20145;-68
2023/06/26 04:25:02;;;;;;;;;;;21.50;99.90;;;;;;5049591;28;20049;-68
2023/06/26 04:27:28;;;;;;;13.80;6.18;;;21.50;99.90;;;;;;5028383;28;19917;-68
2023/06/26 04:29:54;;;;;;;13.45;6.07;;;21.50;99.90;;;;;;5031279;28;20045;-68
2023/06/26 04:32:20;;;;;;;;;;;21.50;99.90;;;;;;5050412;28;20052;-68
2023/06/26 04:34:47;;;;;;;12.20;6.20;;;21.60;99.90;;;;;;5031773;28;20283;-69
2023/06/26 04:37:16;;;;;;;15.57;6.55;;;21.50;99.90;;;;;;5031801;28;20049;-68
2023/06/26 04:39:41;;;;;;;16.05;6.70;;;21.40;99.90;;;;;;5030341;28;20041;-68
2023/06/26 04:42:07;;;;;;;;;;;21.40;99.90;;;;;;5032251;28;20044;-68
2023/06/26 04:44:33;;;;;;;11.15;6.07;;;21.30;99.90;;;;;;5031147;28;19925;-68
2023/06/26 04:46:59;;;;;;;12.90;6.10;;;21.30;99.90;;;;;;5031013;28;20466;-69
2023/06/26 04:49:24;;;;;;;;;;;21.20;99.90;;;;;;5027687;28;20045;-69
2023/06/26 04:51:50;;;;;;;14.60;5.55;;;21.20;99.90;;;;;;5027172;28;20413;-68
2023/06/26 04:54:16;;;;;;;;;;;21.10;99.90;;;;;;5031768;28;20098;-68
2023/06/26 04:56:43;;;;;;;9.68;5.30;;;21.10;99.90;;;;;;5047924;28;19925;-68
2023/06/26 04:59:13;;;;;;;10.18;4.07;;;21.00;99.90;;;;;;5049155;28;20438;-68
2023/06/26 05:01:39;;;;;;;10.93;3.92;;;20.90;99.90;;;;;;5026688;28;20041;-68
2023/06/26 05:04:05;;;;;;;13.98;4.75;;;20.80;99.90;;;;;;5048585;28;20043;-68
2023/06/26 05:06:31;;;;;;;11.63;4.05;;;20.70;99.90;;;;;;5029795;28;20535;-68
2023/06/26 05:08:56;;;;;;;;;;;20.70;99.90;;;;;;5026495;28;20036;-68
2023/06/26 05:11:23;;;;;;;7.70;3.70;;;20.70;99.90;;;;;;5049187;28;19920;-68
2023/06/26 05:13:49;;;;;;;;;;;20.60;99.90;;;;;;5049168;28;20845;-68
2023/06/26 05:16:14;;;;;;;12.00;3.63;;;20.60;99.90;;;;;;5044719;28;19917;-68
2023/06/26 05:18:40;;;;;;;;;;;20.40;99.90;;;;;;5030804;28;20040;-68
2023/06/26 05:21:06;;;;;;;12.85;2.78;;;20.40;99.90;;;;;;5031162;28;19981;-68
2023/06/26 05:23:33;;;;;;;8.10;3.55;;;20.30;99.90;;;;;;5017799;28;20406;-68
2023/06/26 05:26:00;;;;;;;18.27;3.20;;;20.30;99.90;;;;;;5047589;28;20052;-68
2023/06/26 05:28:27;;;;;;;8.70;2.95;;;20.20;99.90;;;;;;5030503;28;20047;-68
2023/06/26 05:30:54;;;;;;;10.68;3.28;;;20.20;99.90;;;;;;5027413;28;20553;-68
2023/06/26 05:33:23;;;;;;;6.70;2.85;;;20.20;99.90;;;;;;5047342;28;20036;-68
2023/06/26 05:35:50;;;;;;;8.43;2.97;;;20.20;99.90;;;;;;5026710;28;20144;-69
2023/06/26 05:38:16;;;;;;;13.05;2.83;;;20.20;99.90;;;;;;5048088;28;20048;-69
2023/06/26 05:40:42;;;;;;;7.72;2.90;;;20.10;99.90;;;;;;5048470;28;20090;-68
2023/06/26 05:43:08;;;;;;;14.85;3.10;;;20.10;99.90;;;;;;5022985;28;20083;-68
2023/06/26 05:45:34;;;;;;;9.80;2.85;;;20.10;99.90;;;;;;5029716;28;20347;-68
2023/06/26 05:48:00;;;;;;;11.80;3.15;;;20.10;99.90;;;;;;5047446;28;20522;-68
2023/06/26 05:50:26;;;;;;;;;;;20.00;99.90;;;;;;5035370;28;20041;-68
2023/06/26 05:52:52;;;;;;;7.70;2.22;;;20.10;99.90;;;;;;5029310;28;20375;-69
2023/06/26 05:55:18;;;;;;;;;;;20.10;99.90;;;;;;5048554;28;20069;-68
2023/06/26 05:57:45;;;;;;;8.20;2.00;;;20.10;99.90;;;;;;5029944;28;20410;-69
2023/06/26 06:00:12;;;;;;;12.98;2.60;;;20.10;99.90;;;;;;5030412;28;20136;-68
2023/06/26 06:02:38;;;;;;;9.73;2.50;;;20.20;99.90;;;;;;5026310;28;20044;-68
2023/06/26 06:05:05;;;;;;;8.18;2.88;;;20.20;99.90;;;;;;5029937;28;20148;-68
2023/06/26 06:07:34;;;;;;;8.75;2.67;;;20.20;99.90;;;;;;5030217;28;20583;-69
2023/06/26 06:10:01;;;;;;;12.60;2.60;;;20.20;99.90;;;;;;5047720;28;20041;-68
2023/06/26 06:12:27;;;;;;;11.13;2.35;;;20.20;99.90;;;;;;5029757;28;20154;-68
2023/06/26 06:14:53;;;;;;;7.82;1.85;;;20.30;99.90;;;;;;5029102;28;20087;-68
2023/06/26 06:17:21;;;;;;;;;;;20.30;99.90;;;;;;5048535;28;20047;-68
2023/06/26 06:19:47;;;;;;;9.80;2.60;;;20.30;99.90;;;;;;5043627;28;19916;-69
2023/06/26 06:22:13;;;;;;;13.13;2.75;;;20.40;99.90;;;;;;5042488;28;20041;-70
2023/06/26 06:24:39;;;;;;;7.88;2.42;;;20.40;99.90;;;;;;5045048;28;20063;-70
2023/06/26 06:27:04;;;;;;;9.48;1.95;;;20.40;99.90;;;;;;5030032;28;20475;-70
2023/06/26 06:29:31;;;;;;;6.25;1.45;;;20.50;99.90;;;;;;5047165;28;20037;-70
2023/06/26 06:31:56;;;;;;;26.00;2.25;;;20.50;99.90;;;;;;5033325;28;20036;-70
2023/06/26 06:34:22;;;;;;;4.70;1.42;;;20.40;99.90;;;;;;5033918;28;20051;-70
2023/06/26 06:36:49;;;;;;;;;;;20.40;99.90;;;;;;5052417;28;20537;-71
2023/06/26 06:39:15;;;;;;;5.75;1.63;;;20.40;99.90;;;;;;5031351;28;20684;-68
2023/06/26 06:41:41;;;;;;;5.78;1.63;;;20.40;99.90;;;;;;5030599;28;20257;-68
2023/06/26 06:44:06;;;;;;;4.10;1.50;;;20.50;99.90;;;;;;5051669;28;20118;-68
2023/06/26 06:46:32;;;;;;;9.15;1.60;;;20.50;99.90;;;;;;5033963;28;20151;-68
2023/06/26 06:48:58;;;;;;;8.38;1.90;;;20.60;99.90;;;;;;5045367;28;20564;-69
2023/06/26 06:51:23;;;;;;;6.20;1.63;;;20.60;99.90;;;;;;5030063;28;20033;-68
2023/06/26 06:53:49;;;;;;;9.27;1.45;;;20.60;99.90;;;;;;5031983;28;20036;-68
2023/06/26 06:56:15;;;;;;;5.90;1.58;;;20.60;99.90;;;;;;5033356;28;20123;-68
2023/06/26 06:58:43;;;;;;;13.80;2.10;;;20.60;99.90;;;;;;5051223;28;20083;-68
2023/06/26 07:01:12;;;;;;;8.73;2.25;;;20.60;99.90;;;;;;5051626;28;20060;-68
2023/06/26 07:03:37;;;;;;;12.07;2.10;;;20.60;99.90;;;;;;5033537;28;20124;-68
2023/06/26 07:06:03;;;;;;;9.85;1.60;;;20.70;99.90;;;;;;5035033;28;20150;-68
2023/06/26 07:08:29;;;;;;;;;;;20.70;99.90;;;;;;5029424;28;20043;-69
2023/06/26 07:10:58;;;;;;;8.70;1.35;;;20.60;99.90;;;;;;5032730;28;19925;-69
2023/06/26 07:13:24;;;;;;;5.40;1.30;;;20.60;99.90;;;;;;5033300;28;20033;-68
2023/06/26 07:15:50;;;;;;;6.95;2.08;;;20.70;99.90;;;;;;5031017;28;20045;-68
2023/06/26 07:18:16;;;;;;;7.78;1.55;;;20.70;99.90;;;;;;5047709;28;20298;-68
2023/06/26 07:20:42;;;;;;;17.92;2.70;;;20.70;99.90;;;;;;5033010;28;20076;-68
2023/06/26 07:23:08;;;;;;;;;;;20.80;99.90;;;;;;5032863;28;20435;-68
2023/06/26 07:25:33;;;;;;;2.00;0.90;;;20.80;99.90;;;;;;5050861;28;20378;-68
2023/06/26 07:27:59;;;;;;;5.60;1.38;;;20.80;99.90;;;;;;5050795;28;20029;-68
2023/06/26 07:30:25;;;;;;;6.43;1.35;;;20.80;99.90;;;;;;5051029;28;20041;-68
2023/06/26 07:32:50;;;;;;;5.93;1.55;;;20.90;99.90;;;;;;5050487;28;20040;-68
2023/06/26 07:35:16;;;;;;;;;;;20.90;99.90;;;;;;5027896;28;20048;-69
2023/06/26 07:37:42;;;;;;;9.90;1.55;;;20.90;99.90;;;;;;5050766;28;19952;-68
2023/06/26 07:40:09;;;;;;;1.98;0.98;;;20.90;99.90;;;;;;5032376;28;20044;-68
2023/06/26 07:42:34;;;;;;;7.78;1.48;;;21.00;99.90;;;;;;5049969;28;20106;-68
2023/06/26 07:45:00;;;;;;;;;;;21.00;99.90;;;;;;5050504;28;20127;-68
2023/06/26 07:47:26;;;;;;;9.27;1.58;;;21.00;99.90;;;;;;5032571;28;19917;-68
2023/06/26 07:49:51;;;;;;;2.42;1.00;;;20.90;99.90;;;;;;5049517;28;20033;-68
2023/06/26 07:52:18;;;;;;;;;;;20.90;99.90;;;;;;5050969;28;20037;-68
2023/06/26 07:54:44;;;;;;;5.57;1.30;;;20.90;99.90;;;;;;5047120;28;20207;-68
2023/06/26 07:57:11;;;;;;;4.72;1.25;;;20.90;99.90;;;;;;5050255;28;20037;-69
2023/06/26 07:59:37;;;;;;;4.93;1.40;;;21.00;99.90;;;;;;5031527;28;20057;-68
2023/06/26 08:02:02;;;;;;;;;;;21.00;99.90;;;;;;5032567;28;20059;-68
2023/06/26 08:04:33;;;;;;;3.42;1.10;;;21.10;99.90;;;;;;5049836;28;20339;-68
2023/06/26 08:07:00;;;;;;;5.15;1.58;;;21.20;99.90;;;;;;5049630;28;20478;-68
2023/06/26 08:09:27;;;;;;;3.83;1.15;;;21.20;99.90;;;;;;5048743;28;20037;-67
2023/06/26 08:11:53;;;;;;;4.57;1.25;;;21.20;99.90;;;;;;5032297;28;20565;-68
2023/06/26 08:14:19;;;;;;;5.63;1.65;;;21.30;99.90;;;;;;5031910;28;20037;-68
2023/06/26 08:16:45;;;;;;;;;;;21.30;99.90;;;;;;5031506;28;20037;-68
2023/06/26 08:19:12;;;;;;;3.38;1.63;;;21.20;99.90;;;;;;5031899;28;20363;-69
2023/06/26 08:21:38;;;;;;;7.13;1.38;;;21.20;99.90;;;;;;5050581;28;20048;-69
2023/06/26 08:24:03;;;;;;;;;;;21.20;99.90;;;;;;5050014;28;20395;-69
2023/06/26 08:26:29;;;;;;;4.93;1.35;;;21.20;99.90;;;;;;5049401;28;19928;-69
2023/06/26 08:28:55;;;;;;;;;;;21.20;99.90;;;;;;5031814;28;20036;-68
2023/06/26 08:31:20;;;;;;;3.63;1.50;;;21.20;99.90;;;;;;5045156;28;19916;-69
2023/06/26 08:33:46;;;;;;;;;;;21.20;99.90;;;;;;5031595;28;20052;-69
2023/06/26 08:36:12;;;;;;;8.93;1.40;;;21.20;99.90;;;;;;5047171;28;20365;-69
2023/06/26 08:38:40;;;;;;;;;;;21.10;99.90;;;;;;5032156;28;20493;-68
2023/06/26 08:41:09;;;;;;;7.20;1.52;;;21.10;99.90;;;;;;5031769;28;19982;-69
2023/06/26 08:43:36;;;;;;;4.28;1.48;;;21.10;99.90;;;;;;5013325;28;20133;-69
2023/06/26 08:46:02;;;;;;;9.40;2.22;;;21.10;99.90;;;;;;5048707;28;20494;-70
2023/06/26 08:48:36;;;;;;;5.22;1.60;;;21.10;99.90;;;;;;5049109;28;20512;-69
2023/06/26 08:51:11;;;;;;;4.47;1.50;;;21.20;99.90;;;;;;5029864;28;20037;-69
2023/06/26 08:54:00;;;;;;;3.88;1.17;;;21.30;99.90;;;;;;5030652;28;20077;-69
2023/06/26 08:56:35;;;;;;;6.93;2.15;;;21.40;99.90;;;;;;5049657;28;20042;-69
2023/06/26 08:59:01;;;;;;;5.55;1.58;;;21.40;99.90;;;;;;5047999;28;20147;-69
2023/06/26 09:01:27;;;;;;;;;;;21.40;99.90;;;;;;5049665;28;20148;-69
2023/06/26 09:03:53;;;;;;;5.43;1.83;;;21.50;99.90;;;;;;5030949;28;19924;-69
2023/06/26 09:06:18;;;;;;;6.65;1.77;;;21.50;99.90;;;;;;5030114;28;20045;-69
2023/06/26 09:08:44;;;;;;;;;;;21.40;99.90;;;;;;5025307;28;20047;-69
2023/06/26 09:11:10;;;;;;;4.22;1.70;;;21.40;99.90;;;;;;5048623;28;20279;-69
2023/06/26 09:13:35;;;;;;;;;;;21.40;99.90;;;;;;5049318;28;20090;-68
2023/06/26 09:16:08;;;;;;;3.97;1.55;;;21.50;99.90;;;;;;5029961;28;20294;-68
2023/06/26 09:18:34;;;;;;;8.02;2.58;;;21.40;99.90;;;;;;5030510;28;20051;-68
2023/06/26 09:21:05;;;;;;;14.48;2.70;;;21.40;99.90;;;;;;5030582;28;20048;-69
2023/06/26 09:23:32;;;;;;;4.25;2.15;;;21.30;99.90;;;;;;5049093;28;20470;-68
2023/06/26 09:25:57;;;;;;;5.75;2.22;;;21.30;99.90;;;;;;5030471;28;20048;-69
2023/06/26 09:28:23;;;;;;;;;;;21.30;99.90;;;;;;5048519;28;20569;-69
2023/06/26 09:30:50;;;;;;;6.82;2.00;;;21.30;99.90;;;;;;5030553;28;19916;-69
2023/06/26 09:33:17;;;;;;;5.70;1.88;;;21.40;99.90;;;;;;5046671;28;20518;-69
2023/06/26 09:35:44;;;;;;;5.50;2.47;;;21.50;99.90;;;;;;5048157;28;20047;-68
2023/06/26 09:38:10;;;;;;;9.15;2.33;;;21.60;99.90;;;;;;5028900;28;20040;-68
2023/06/26 09:40:37;;;;;;;;;;;21.60;99.90;;;;;;5049748;28;20048;-69
2023/06/26 09:43:08;;;;;;;17.48;2.38;;;21.70;99.90;;;;;;5048812;28;19971;-69
2023/06/26 09:45:38;;;;;;;7.90;2.20;;;21.80;99.90;;;;;;5029830;28;20044;-69
2023/06/26 09:48:04;;;;;;;16.55;4.03;;;22.00;99.90;;;;;;5028665;28;20117;-69
2023/06/26 09:50:33;;;;;;;3.10;1.58;;;22.10;99.90;;;;;;5048055;28;20071;-69
2023/06/26 09:53:10;;;;;;;4.95;1.90;;;22.00;99.90;;;;;;5022909;28;20438;-69
2023/06/26 09:55:37;;;;;;;13.30;2.45;;;22.10;99.90;;;;;;5028770;28;20041;-69
2023/06/26 09:58:03;;;;;;;6.80;2.20;;;22.30;99.90;;;;;;5030107;28;20045;-68
2023/06/26 10:00:30;;;;;;;5.53;1.83;;;22.30;99.90;;;;;;5046797;28;20037;-70
2023/06/26 10:02:56;;;;;;;11.85;2.60;;;22.40;99.90;;;;;;5041977;28;20513;-68
2023/06/26 10:05:22;;;;;;;;;;;22.50;99.90;;;;;;5027945;28;20041;-68
2023/06/26 10:07:48;;;;;;;14.07;2.78;;;22.50;99.90;;;;;;5047352;28;20469;-69
2023/06/26 10:10:16;;;;;;;6.97;1.98;;;22.40;99.90;;;;;;5027938;28;20355;-69
2023/06/26 10:12:46;;;;;;;14.88;3.60;;;22.30;99.90;;;;;;5030193;28;20037;-69
2023/06/26 10:15:16;;;;;;;23.55;2.97;;;22.20;99.90;;;;;;5045982;28;20094;-69
2023/06/26 10:17:43;;;;;;;9.07;2.15;;;22.10;99.90;;;;;;5047851;28;20037;-69
2023/06/26 10:20:09;;;;;;;3.10;1.10;;;22.00;99.90;;;;;;5029494;28;20567;-69
2023/06/26 10:22:41;;;;;;;5.15;1.92;;;22.00;99.90;;;;;;5048413;28;20040;-68
2023/06/26 10:25:09;;;;;;;6.13;1.70;;;21.90;99.90;;;;;;5029702;28;20418;-69
2023/06/26 10:27:38;;;;;;;7.70;1.73;;;22.00;99.90;;;;;;5026590;28;20037;-68
2023/06/26 10:30:09;;;;;;;8.00;1.95;;;22.10;99.90;;;;;;5013221;28;20501;-69
2023/06/26 10:32:36;;;;;;;5.45;1.50;;;22.20;99.90;;;;;;5029442;28;20101;-69
2023/06/26 10:35:03;;;;;;;6.90;1.88;;;22.20;99.90;;;;;;5044425;28;20115;-69
2023/06/26 10:37:46;;;;;;;6.10;1.40;;;22.20;99.90;;;;;;5047792;28;20040;-68
2023/06/26 10:40:13;;;;;;;4.97;1.23;;;22.20;99.90;;;;;;5029167;28;20109;-69
2023/06/26 10:42:40;;;;;;;8.10;1.52;;;22.20;99.90;;;;;;5029951;28;20516;-69
2023/06/26 10:45:11;;;;;;;3.40;0.90;;;22.20;99.90;;;;;;5028106;28;20415;-69
2023/06/26 10:47:40;;;;;;;4.03;1.40;;;22.30;99.90;;;;;;5029963;28;20494;-69
2023/06/26 10:50:23;;;;;;;5.65;1.00;;;22.50;99.90;;;;;;5022229;28;20081;-69
2023/06/26 10:53:10;;;;;;;9.18;1.45;;;22.50;99.90;;;;;;5042137;28;20067;-69
2023/06/26 10:55:37;;;;;;;3.92;1.20;;;22.80;99.90;;;;;;5029526;28;20044;-68
2023/06/26 10:58:03;;;;;;;5.18;1.13;;;22.90;99.90;;;;;;5047546;28;20045;-68
2023/06/26 11:00:28;;;;;;;;;;;22.80;99.90;;;;;;5029105;28;20128;-68
2023/06/26 11:02:54;;;;;;;3.85;1.02;;;22.60;99.90;;;;;;5046642;28;19960;-68
2023/06/26 11:05:24;;;;;;;;;;;22.40;99.90;;;;;;5047071;28;20037;-68
2023/06/26 11:08:11;;;;;;;5.88;1.20;;;22.40;99.90;;;;;;5046452;28;19936;-68
2023/06/26 11:10:50;;;;;;;;;;;22.20;99.90;;;;;;5042551;28;20037;-68
2023/06/26 11:13:18;;;;;;;7.55;0.85;;;21.90;99.90;;;;;;5044832;28;20425;-68
2023/06/26 11:15:44;;;;;;;3.35;0.80;;;21.90;99.90;;;;;;5024852;28;20051;-68
2023/06/26 11:18:12;;;;;;;2.05;0.80;;;21.90;99.90;;;;;;5049508;28;20126;-69
2023/06/26 11:20:37;;;;;;;4.55;0.90;;;22.00;99.90;;;;;;5051117;28;20041;-68
2023/06/26 11:23:03;;;;;;;;;;;22.30;99.90;;;;;;5051438;28;20047;-69
2023/06/26 11:25:30;;;;;;;10.10;1.55;;;22.40;99.90;;;;;;5051140;28;19925;-69
2023/06/26 11:27:56;;;;;;;11.43;1.85;;;22.50;99.90;;;;;;5042904;28;20048;-69
2023/06/26 11:30:25;;;;;;;;;;;22.40;99.90;;;;;;5050996;28;20407;-68
2023/06/26 11:32:51;;;;;;;7.00;1.35;;;22.30;99.90;;;;;;5042825;28;19962;-68
2023/06/26 11:35:29;;;;;;;;;;;22.20;99.90;;;;;;5032856;28;20048;-68
2023/06/26 11:38:05;;;;;;;3.45;1.08;;;22.10;99.90;;;;;;5016111;28;19917;-68
2023/06/26 11:40:35;;;;;;;3.58;1.00;;;22.10;99.90;;;;;;5032242;28;20419;-69
2023/06/26 11:43:02;;;;;;;16.40;1.60;;;22.00;99.90;;;;;;5031571;28;20494;-68
2023/06/26 11:45:32;;;;;;;5.68;1.30;;;22.10;99.90;;;;;;5050696;28;20048;-69
2023/06/26 11:47:59;;;;;;;4.65;0.90;;;22.30;99.90;;;;;;5032446;28;20033;-68
2023/06/26 11:50:25;;;;;;;6.20;1.08;;;22.40;99.90;;;;;;5025596;28;20037;-69
2023/06/26 11:52:59;;;;;;;9.18;1.25;;;22.50;99.90;;;;;;5028952;28;20048;-69
2023/06/26 11:55:25;;;;;;;4.85;1.40;;;22.50;99.90;;;;;;5041805;28;20052;-69
2023/06/26 11:57:56;;;;;;;8.63;1.45;;;22.50;99.90;;;;;;5032623;28;20506;-69
2023/06/26 12:00:22;;;;;;;7.90;1.92;;;22.40;99.90;;;;;;5035807;28;20068;-68
2023/06/26 12:02:49;;;;;;;3.97;0.70;;;22.30;99.90;;;;;;5032327;28;20041;-68
2023/06/26 12:05:16;;;;;;;2.15;0.90;;;22.20;99.90;;;;;;5030938;28;20041;-68
2023/06/26 12:07:45;;;;;;;4.53;1.35;;;22.20;99.90;;;;;;5015808;28;20090;-68
2023/06/26 12:10:12;;;;;;;4.20;1.13;;;22.10;99.90;;;;;;5027432;28;20041;-68
2023/06/26 12:12:38;;;;;;;3.45;0.90;;;22.10;99.90;;;;;;5048219;28;20111;-69
2023/06/26 12:15:06;;;;;;;5.63;1.08;;;22.10;99.90;;;;;;5029660;28;20048;-68
2023/06/26 12:17:32;;;;;;;6.68;1.23;;;22.10;99.90;;;;;;5031990;28;20045;-69
2023/06/26 12:19:58;;;;;;;;;;;22.20;99.90;;;;;;5032478;28;20562;-69
2023/06/26 12:22:23;;;;;;;4.60;1.33;;;22.20;99.90;;;;;;5031544;28;19921;-69
2023/06/26 12:24:49;;;;;;;4.00;0.90;;;22.30;99.90;;;;;;5049730;28;20041;-68
2023/06/26 12:27:15;;;;;;;;;;;22.30;99.90;;;;;;5048046;28;20037;-69
2023/06/26 12:29:50;;;;;;;6.72;1.10;;;22.30;99.90;;;;;;5030503;28;20387;-69
2023/06/26 12:32:16;;;;;;;6.28;1.05;;;22.20;99.90;;;;;;5049911;28;20033;-68
2023/06/26 12:34:41;;;;;;;;;;;22.20;99.90;;;;;;5050321;28;20043;-68
2023/06/26 12:37:10;;;;;;;7.03;1.75;;;22.10;99.90;;;;;;5049379;28;19924;-69
2023/06/26 12:40:16;;;;;;;4.80;1.13;;;22.00;99.90;;;;;;5030902;28;20045;-69
2023/06/26 12:42:42;;;;;;;6.60;1.40;;;21.80;99.90;;;;;;5018378;28;20056;-68
2023/06/26 12:45:11;;;;;;;;;;;21.80;99.90;;;;;;5031544;28;20055;-68
2023/06/26 12:47:38;;;;;;;6.35;1.60;;;21.70;99.90;;;;;;5031574;28;19917;-69
2023/06/26 12:50:06;;;;;;;5.13;1.00;;;21.70;99.90;;;;;;5026046;28;20101;-69
2023/06/26 12:52:31;;;;;;;4.80;1.23;;;21.60;99.90;;;;;;5026394;28;20368;-69
2023/06/26 12:54:57;;;;;;;;;;;21.70;99.90;;;;;;5028558;28;20041;-68
2023/06/26 12:57:23;;;;;;;5.30;1.30;;;21.80;99.90;;;;;;5030845;28;19920;-69
2023/06/26 12:59:49;;;;;;;;;;;21.90;99.90;;;;;;5027010;28;20040;-68
2023/06/26 13:02:14;;;;;;;4.82;1.05;;;21.90;99.90;;;;;;5030932;28;19939;-70